METAR Data
IDs: Format: Raw Decoded Include TAF

Data at: 2220 UTC 19 Jan 2019

PAPO 192156Z AUTO 01007KT 9SM OVC015 M18/M21 A3011 RMK AO2 SLP196 T11831211 FZRANO
PAPO 192056Z AUTO 01009KT 9SM OVC015 M18/M21 A3011 RMK AO2 SNE51 SLP196 P0000 60000 T11831206 53005 FZRANO
PAPO 191956Z AUTO 36004KT 9SM -SN OVC015 M18/M21 A3010 RMK AO2 SLP192 P0000 T11831206 FZRANO
PAPO 191856Z AUTO 02004KT 9SM -SN OVC015 M18/M21 A3010 RMK AO2 SNE20B39 SLP192 P0000 T11781206 FZRANO
PAPO 191756Z AUTO 35005KT 9SM -SN OVC015 M18/M20 A3010 RMK AO2 SNE29B45 SLP191 P0000 60000 T11781200 11172 21178 53001 FZRANO
PAPO 191656Z AUTO 35005KT 9SM -SN OVC015 M18/M20 A3009 RMK AO2 SLP189 P0000 T11781200 FZRANO
PAPO 191610Z AUTO 32007KT 9SM OVC015 M18/M20 A3010 RMK AO2 SNE07 P0000 FZRANO
PAPO 191556Z AUTO 32007KT 9SM -SN OVC013 M18/M20 A3010 RMK AO2 SLP193 P0000 T11781200 FZRANO
PAPO 191456Z AUTO 35007KT 10SM -SN OVC017 M17/M19 A3010 RMK AO2 SNE00B32 SLP191 P0000 60000 T11721194 56002 FZRANO
PAPO 191356Z AUTO 32003KT 9SM -SN OVC015 M17/M19 A3010 RMK AO2 SNB19 SLP191 P0000 T11721194 FZRANO
PAPO 191256Z AUTO 00000KT 10SM OVC015 M17/M19 A3010 RMK AO2 SLP191 T11721194 FZRANO
PAPO 191156Z AUTO 00000KT 10SM OVC015 M17/M19 A3010 RMK AO2 SLP193 60000 T11721194 11172 21222 54000 FZRANO
PAPO 191056Z AUTO 11003KT 10SM OVC015 M18/M19 A3010 RMK AO2 SNB18E34 SLP193 P0000 T11781194 FZRANO
PAPO 190956Z AUTO 00000KT 10SM OVC017 M18/M20 A3010 RMK AO2 SNE13 SLP193 P0000 T11781200 FZRANO
PAPO 190856Z AUTO 19003KT 9SM -SN FEW007 OVC017 M18/M21 A3010 RMK AO2 SNB45 SLP192 P0000 60000 T11831206 410721233 53002 FZRANO
PAPO 190813Z AUTO 16004KT 10SM FEW007 OVC019 M19/M22 A3010 RMK AO2 FZRANO
PAPO 190756Z AUTO 14005KT 10SM BKN007 OVC019 M19/M22 A3009 RMK AO2 SLP190 T11941217 FZRANO
PAPO 190656Z AUTO 17005KT 10SM OVC009 M21/M23 A3010 RMK AO2 SLP191 T12061228 FZRANO
PAPO 190623Z AUTO 17007KT 10SM BKN009 OVC017 M22/M24 A3010 RMK AO2 FZRANO
PAPO 190614Z AUTO 16006KT 10SM SCT009 OVC017 M22/M24 A3010 RMK AO2 FZRANO
PAPO 190556Z AUTO 17007KT 10SM OVC017 M22/M24 A3009 RMK AO2 SLP190 T12221244 11194 21233 56001 FZRANO
PAPO 190509Z AUTO 16006KT 10SM BKN017 M23/M25 A3009 RMK AO2 FZRANO
PAPO 190456Z AUTO 16005KT 10SM FEW017 M23/M26 A3009 RMK AO2 SLP190 T12331256 FZRANO
PAPO 190356Z AUTO 15005KT 10SM CLR M23/M26 A3010 RMK AO2 SLP191 T12331256 FZRANO
PAPO 190256Z AUTO 15005KT 10SM CLR M23/M25 A3010 RMK AO2 SLP191 T12281250 53001 FZRANO
PAPO 190156Z AUTO 17006KT 10SM CLR M22/M24 A3010 RMK AO2 SLP191 T12221244 FZRANO
PAPO 190056Z AUTO 19005KT 10SM SCT048 M21/M23 A3009 RMK AO2 SLP190 T12061228 FZRANO
PAPO 182356Z AUTO 20005KT 9SM OVC050 M19/M22 A3009 RMK AO2 SNB40E56 SLP191 P0000 60000 T11941217 11183 21233 51007 FZRANO
PAPO 182256Z AUTO 20004KT 10SM OVC050 M21/M23 A3009 RMK AO2 SLP188 T12061228 FZRANO
PAPO 182156Z AUTO 22005KT 10SM OVC050 M22/M24 A3008 RMK AO2 SLP186 T12221244 FZRANO
PAPO 182056Z AUTO 23006KT 10SM CLR M23/M25 A3007 RMK AO2 SLP183 T12281250 51021 FZRANO
PAPO 181956Z AUTO 25008KT 10SM CLR M22/M24 A3006 RMK AO2 SLP177 T12171239 FZRANO
PAPO 181856Z AUTO 26008KT 10SM OVC047 M19/M22 A3003 RMK AO2 SLP169 T11941222 FZRANO
PAPO 181756Z AUTO 27012KT 10SM OVC047 M18/M21 A3001 RMK AO2 SNB01E18 SLP162 P0000 60000 T11831206 11139 21183 51019 FZRANO
PAPO 181656Z AUTO 28013KT 9SM OVC045 M18/M20 A2999 RMK AO2 SNB37E55 SLP155 P0000 T11781200 FZRANO
PAPO 181556Z AUTO 26014KT 10SM OVC043 M17/M19 A2998 RMK AO2 SNE50 SLP150 P0000 T11721194 FZRANO
PAPO 181537Z AUTO 27014KT 9SM -SN SCT020 BKN043 M17/M19 A2997 RMK AO2 P0000 FZRANO
PAPO 181456Z AUTO 27013KT 6SM -SN BR BKN022 OVC031 M17/M19 A2995 RMK AO2 SLP143 P0000 60000 T11671189 51020 FZRANO
PAPO 181413Z AUTO 27014KT 7SM -SN SCT021 BKN030 M16/M18 A2994 RMK AO2 P0000 FZRANO
PAPO 181356Z AUTO 28014KT 9SM -SN OVC019 M16/M18 A2993 RMK AO2 SLP136 P0000 T11611183 FZRANO
PAPO 181256Z AUTO 28016KT 5SM -SN BR OVC022 M15/M17 A2992 RMK AO2 SLP130 P0000 T11501172 FZRANO
PAPO 181156Z AUTO 27015KT 6SM -SN BR FEW022 BKN027 OVC039 M14/M16 A2989 RMK AO2 SLP123 P0000 60000 T11391156 11072 21139 51021 FZRANO
PAPO 181133Z AUTO 27012KT 5SM -SN BR FEW015 OVC036 M13/M15 A2989 RMK AO2 P0000 FZRANO
PAPO 181037Z AUTO 29010KT 3SM -SN BR SCT008 OVC016 M12/M13 A2987 RMK AO2 P0000 FZRANO